createdAt,value
2022-12-23T00:00:34.096Z,18.0
2022-12-23T00:01:34.473Z,16.7
2022-12-23T00:02:34.516Z,16.9
2022-12-23T00:03:34.838Z,17.0
2022-12-23T00:04:34.603Z,17.7
2022-12-23T00:05:37.959Z,17.3
2022-12-23T00:06:34.099Z,16.6
2022-12-23T00:07:34.059Z,16.5
2022-12-23T00:08:34.745Z,16.2
2022-12-23T00:09:34.134Z,16.5
2022-12-23T00:10:37.579Z,16.9
2022-12-23T00:11:34.259Z,16.6
2022-12-23T00:12:34.125Z,17.7
2022-12-23T00:13:34.040Z,16.4
2022-12-23T00:14:34.640Z,17.1
2022-12-23T00:15:33.984Z,16.0
2022-12-23T00:16:35.181Z,17.7
2022-12-23T00:17:35.228Z,17.1
2022-12-23T00:18:34.650Z,16.9
2022-12-23T00:19:34.555Z,17.6
2022-12-23T00:20:33.932Z,16.5
2022-12-23T00:21:34.603Z,15.9
2022-12-23T00:22:34.488Z,16.2
2022-12-23T00:23:35.813Z,16.1
2022-12-23T00:24:34.516Z,16.5
2022-12-23T00:25:35.429Z,17.7
2022-12-23T00:26:34.606Z,16.4
2022-12-23T00:27:37.638Z,16.0
2022-12-23T00:28:34.446Z,17.3
2022-12-23T00:29:34.545Z,15.4
2022-12-23T00:30:33.924Z,16.3
2022-12-23T00:31:34.251Z,17.4
2022-12-23T00:32:34.004Z,15.6
2022-12-23T00:33:35.829Z,15.7
2022-12-23T00:34:34.150Z,16.0
2022-12-23T00:35:34.361Z,16.2
2022-12-23T00:36:34.655Z,16.7
2022-12-23T00:37:33.971Z,16.7
2022-12-23T00:38:34.245Z,15.8
2022-12-23T00:39:34.529Z,15.6
2022-12-23T00:40:33.926Z,16.7
2022-12-23T00:41:34.785Z,16.7
2022-12-23T00:42:34.257Z,15.4
2022-12-23T00:43:34.230Z,17.2
2022-12-23T00:44:34.404Z,15.8
2022-12-23T00:45:34.778Z,17.2
2022-12-23T00:46:34.601Z,16.7
2022-12-23T00:47:33.982Z,14.8
2022-12-23T00:48:34.723Z,14.7
2022-12-23T00:49:34.121Z,14.2
2022-12-23T00:50:35.170Z,15.2
2022-12-23T00:51:34.127Z,16.1
2022-12-23T00:52:34.441Z,15.9
2022-12-23T00:53:34.219Z,16.2
2022-12-23T00:54:34.204Z,16.3
2022-12-23T00:55:34.693Z,15.8
2022-12-23T00:56:34.493Z,16.5
2022-12-23T00:57:34.705Z,16.7
2022-12-23T00:58:34.132Z,16.9
2022-12-23T00:59:34.476Z,16.8
2022-12-23T01:00:34.284Z,16.5
2022-12-23T01:01:34.224Z,15.4
2022-12-23T01:02:34.776Z,15.9
2022-12-23T01:03:34.185Z,15.9
2022-12-23T01:04:34.850Z,15.7
2022-12-23T01:05:35.080Z,16.6
2022-12-23T01:06:34.632Z,15.5
2022-12-23T01:07:34.198Z,15.3
2022-12-23T01:08:34.583Z,15.6
2022-12-23T01:09:34.365Z,16.8
2022-12-23T01:10:35.348Z,15.5
2022-12-23T01:11:34.541Z,15.1
2022-12-23T01:12:34.730Z,15.4
2022-12-23T01:13:34.919Z,14.5
2022-12-23T01:14:33.993Z,16.3
2022-12-23T01:15:34.154Z,15.7
2022-12-23T01:16:37.725Z,15.9
2022-12-23T01:17:34.653Z,15.5
2022-12-23T01:18:35.181Z,16.4
2022-12-23T01:19:34.375Z,16.5
2022-12-23T01:20:36.343Z,14.9
2022-12-23T01:21:33.931Z,17.0
2022-12-23T01:22:34.588Z,15.6
2022-12-23T01:23:34.774Z,16.6
2022-12-23T01:24:34.772Z,16.3
2022-12-23T01:25:34.155Z,17.3
2022-12-23T01:26:34.575Z,15.2
2022-12-23T01:27:34.628Z,16.9
2022-12-23T01:28:34.940Z,16.5
2022-12-23T01:29:34.419Z,16.3
2022-12-23T01:30:34.068Z,16.1
2022-12-23T01:31:33.993Z,16.0
2022-12-23T01:32:34.584Z,16.4
2022-12-23T01:33:34.395Z,15.4
2022-12-23T01:34:37.190Z,15.3
2022-12-23T01:35:34.264Z,15.1
2022-12-23T01:36:34.198Z,15.2
2022-12-23T01:37:34.491Z,15.5
2022-12-23T01:38:34.287Z,15.8
2022-12-23T01:39:34.593Z,15.9
2022-12-23T01:40:38.838Z,15.6
2022-12-23T01:41:34.707Z,15.3
2022-12-23T01:42:34.506Z,15.1
2022-12-23T01:43:45.526Z,15.2
2022-12-23T01:44:54.152Z,15.7
2022-12-23T01:45:34.574Z,15.6
2022-12-23T01:46:34.675Z,15.4
2022-12-23T01:47:51.978Z,15.6
2022-12-23T01:48:34.879Z,15.2
2022-12-23T01:49:34.063Z,14.5
2022-12-23T01:50:41.539Z,13.4
2022-12-23T01:51:34.578Z,15.8
2022-12-23T01:52:37.795Z,15.1
2022-12-23T01:53:36.230Z,14.4
2022-12-23T01:54:34.721Z,15.1
2022-12-23T01:55:36.788Z,15.0
2022-12-23T01:56:35.908Z,15.0
2022-12-23T01:57:35.211Z,15.2
2022-12-23T01:58:36.932Z,15.6
2022-12-23T01:59:34.710Z,16.4
2022-12-23T02:00:34.552Z,15.0
2022-12-23T02:01:34.340Z,14.8
2022-12-23T02:02:35.602Z,15.2
2022-12-23T02:03:34.962Z,16.1
2022-12-23T02:04:34.557Z,14.7
2022-12-23T02:05:34.789Z,15.6
2022-12-23T02:06:38.595Z,15.1
2022-12-23T02:07:34.865Z,15.2
2022-12-23T02:08:34.697Z,16.0
2022-12-23T02:09:35.176Z,14.9
2022-12-23T02:10:51.115Z,14.5
2022-12-23T02:11:45.071Z,15.6
2022-12-23T02:12:43.287Z,13.4
2022-12-23T02:13:39.180Z,15.1
2022-12-23T02:14:44.566Z,15.3
2022-12-23T02:15:44.569Z,15.3
2022-12-23T02:16:39.214Z,15.5
2022-12-23T02:17:48.080Z,16.0
2022-12-23T02:18:42.522Z,15.4
2022-12-23T02:19:38.947Z,15.3
2022-12-23T02:20:42.578Z,14.7
2022-12-23T02:21:48.070Z,15.6
2022-12-23T02:22:51.065Z,15.8
2022-12-23T02:23:39.153Z,15.1
2022-12-23T02:24:39.367Z,14.1
2022-12-23T02:25:42.044Z,14.4
2022-12-23T02:26:51.099Z,15.7
2022-12-23T02:27:39.260Z,15.7
2022-12-23T02:28:53.582Z,15.2
2022-12-23T02:29:45.068Z,14.1
2022-12-23T02:30:39.187Z,15.3
2022-12-23T02:31:38.982Z,14.4
2022-12-23T02:32:52.477Z,15.6
2022-12-23T02:33:44.545Z,15.4
2022-12-23T02:34:45.033Z,15.7
2022-12-23T02:35:42.041Z,15.4
2022-12-23T02:36:42.057Z,16.0
2022-12-23T02:37:47.567Z,14.6
2022-12-23T02:38:44.566Z,15.7
2022-12-23T02:39:47.591Z,14.9
2022-12-23T02:40:51.061Z,15.5
2022-12-23T02:41:45.100Z,15.0
2022-12-23T02:42:40.128Z,15.3
2022-12-23T02:43:44.433Z,15.1
2022-12-23T02:44:50.559Z,15.0
2022-12-23T02:45:45.120Z,16.0
2022-12-23T02:46:44.695Z,15.1
2022-12-23T02:47:37.031Z,14.9
2022-12-23T02:48:39.387Z,14.5
2022-12-23T02:49:36.910Z,15.5
2022-12-23T02:50:35.724Z,15.7
2022-12-23T02:51:37.046Z,14.2
2022-12-23T02:52:36.665Z,14.3
2022-12-23T02:53:36.534Z,14.8
2022-12-23T02:54:36.751Z,14.7
2022-12-23T02:55:37.260Z,13.4
2022-12-23T02:56:36.111Z,14.5
2022-12-23T02:57:39.294Z,14.5
2022-12-23T02:58:36.737Z,14.6
2022-12-23T02:59:38.978Z,13.4
2022-12-23T03:00:52.485Z,14.6
2022-12-23T03:01:34.814Z,15.0
2022-12-23T03:02:35.988Z,14.5
2022-12-23T03:03:34.607Z,15.1
2022-12-23T03:04:34.697Z,15.1
2022-12-23T03:05:37.222Z,15.0
2022-12-23T03:06:39.538Z,14.4
2022-12-23T03:07:39.069Z,14.6
2022-12-23T03:08:38.693Z,14.1
2022-12-23T03:09:41.582Z,14.2
2022-12-23T03:10:52.012Z,14.4
2022-12-23T03:11:39.634Z,13.4
2022-12-23T03:12:52.044Z,14.9
2022-12-23T03:13:51.994Z,15.2
2022-12-23T03:14:39.165Z,13.8
2022-12-23T03:15:56.610Z,14.7
2022-12-23T03:16:52.503Z,14.6
2022-12-23T03:17:51.049Z,14.9
2022-12-23T03:18:52.986Z,14.2
2022-12-23T03:19:48.106Z,13.9
2022-12-23T03:20:38.635Z,14.5
2022-12-23T03:21:39.564Z,14.6
2022-12-23T03:22:39.333Z,14.8
2022-12-23T03:23:41.859Z,14.1
2022-12-23T03:24:38.931Z,15.2
2022-12-23T03:25:39.713Z,13.7
2022-12-23T03:26:38.954Z,14.8
2022-12-23T03:27:38.798Z,13.6
2022-12-23T03:28:38.951Z,14.9
2022-12-23T03:29:41.311Z,14.6
2022-12-23T03:30:34.490Z,14.7
2022-12-23T03:31:35.652Z,14.1
2022-12-23T03:32:38.837Z,14.4
2022-12-23T03:33:36.099Z,14.3
2022-12-23T03:34:36.544Z,15.1
2022-12-23T03:35:38.734Z,14.1
2022-12-23T03:36:37.704Z,13.8
2022-12-23T03:37:35.747Z,14.4
2022-12-23T03:38:37.843Z,13.6
2022-12-23T03:39:37.098Z,14.6
2022-12-23T03:40:36.277Z,14.2
2022-12-23T03:41:37.517Z,14.2
2022-12-23T03:42:35.836Z,13.5
2022-12-23T03:43:42.292Z,13.5
2022-12-23T03:44:39.413Z,14.5
2022-12-23T03:45:40.707Z,15.2
2022-12-23T03:46:39.230Z,14.2
2022-12-23T03:47:37.725Z,14.1
2022-12-23T03:48:45.862Z,14.0
2022-12-23T03:49:43.874Z,13.5
2022-12-23T03:51:38.291Z,14.6
2022-12-23T03:52:37.138Z,14.7
2022-12-23T03:53:37.094Z,14.0
2022-12-23T03:54:41.575Z,14.1
2022-12-23T03:55:44.486Z,14.0
2022-12-23T03:56:37.361Z,13.9
2022-12-23T03:57:39.216Z,13.5
2022-12-23T03:58:38.679Z,14.7
2022-12-23T03:59:36.067Z,13.8
2022-12-23T04:00:38.529Z,14.8
2022-12-23T04:01:53.698Z,14.7
2022-12-23T04:02:42.728Z,13.7
2022-12-23T04:03:42.174Z,13.6
2022-12-23T04:04:41.606Z,14.3
2022-12-23T04:05:39.189Z,14.2
2022-12-23T04:06:44.576Z,13.9
2022-12-23T04:07:45.553Z,13.7
2022-12-23T04:08:35.556Z,13.5
2022-12-23T04:09:34.717Z,14.1
2022-12-23T04:10:34.890Z,13.5
2022-12-23T04:11:34.330Z,14.1
2022-12-23T04:12:34.019Z,14.9
2022-12-23T04:13:34.611Z,13.5
2022-12-23T04:14:35.125Z,13.4
2022-12-23T04:15:37.689Z,13.9
2022-12-23T04:16:34.645Z,13.9
2022-12-23T04:17:34.334Z,11.5
2022-12-23T04:18:34.103Z,14.3
2022-12-23T04:19:34.369Z,13.4
2022-12-23T04:20:34.750Z,14.0
2022-12-23T04:21:34.443Z,14.9
2022-12-23T04:22:34.641Z,13.9
2022-12-23T04:23:34.509Z,13.3
2022-12-23T04:24:34.444Z,14.0
2022-12-23T04:25:34.195Z,13.8
2022-12-23T04:26:34.478Z,13.4
2022-12-23T04:27:34.279Z,13.9
2022-12-23T04:28:34.513Z,13.6
2022-12-23T04:29:34.342Z,14.0
2022-12-23T04:30:35.058Z,14.7
2022-12-23T04:31:33.953Z,12.5
2022-12-23T04:32:34.477Z,12.8
2022-12-23T04:33:33.988Z,13.6
2022-12-23T04:34:34.796Z,13.1
2022-12-23T04:35:34.061Z,12.6
2022-12-23T04:36:34.273Z,13.5
2022-12-23T04:37:34.635Z,13.5
2022-12-23T04:38:34.452Z,12.8
2022-12-23T04:39:34.700Z,13.6
2022-12-23T04:40:34.534Z,13.6
2022-12-23T04:41:34.327Z,13.2
2022-12-23T04:42:34.217Z,13.1
2022-12-23T04:43:33.967Z,12.7
2022-12-23T04:44:34.572Z,13.8
2022-12-23T04:45:34.378Z,13.8
2022-12-23T04:46:34.158Z,13.2
2022-12-23T04:47:34.221Z,14.3
2022-12-23T04:48:34.991Z,13.0
2022-12-23T04:49:34.132Z,13.1
2022-12-23T04:50:34.032Z,14.0
2022-12-23T04:51:34.659Z,12.9
2022-12-23T04:52:34.085Z,13.2
2022-12-23T04:53:35.122Z,13.3
2022-12-23T04:54:34.618Z,13.1
2022-12-23T04:55:34.414Z,13.1
2022-12-23T04:56:34.667Z,13.5
2022-12-23T04:57:34.483Z,13.4
2022-12-23T04:58:34.349Z,11.9
2022-12-23T04:59:34.323Z,13.2
2022-12-23T05:00:39.575Z,13.8
2022-12-23T05:01:34.266Z,13.0
2022-12-23T05:02:34.664Z,13.3
2022-12-23T05:03:35.290Z,13.5
2022-12-23T05:04:34.861Z,13.4
2022-12-23T05:05:34.362Z,13.1
2022-12-23T05:06:35.033Z,13.4
2022-12-23T05:07:34.449Z,13.1
2022-12-23T05:08:34.336Z,12.2
2022-12-23T05:09:34.631Z,13.2
2022-12-23T05:10:34.403Z,13.2
2022-12-23T05:11:40.208Z,13.2
2022-12-23T05:12:34.179Z,13.4
2022-12-23T05:13:34.262Z,12.9
2022-12-23T05:14:34.062Z,13.2
2022-12-23T05:15:34.801Z,13.7
2022-12-23T05:16:34.279Z,13.6
2022-12-23T05:17:33.916Z,12.2
2022-12-23T05:18:34.706Z,12.8
2022-12-23T05:19:34.582Z,12.2
2022-12-23T05:20:34.401Z,12.3
2022-12-23T05:21:34.172Z,13.3
2022-12-23T05:22:34.015Z,12.9
2022-12-23T05:23:34.690Z,12.8
2022-12-23T05:24:34.775Z,13.6
2022-12-23T05:25:34.549Z,12.5
2022-12-23T05:26:34.549Z,13.3
2022-12-23T05:27:35.232Z,12.6
2022-12-23T05:28:34.230Z,12.5
2022-12-23T05:29:34.450Z,12.8
2022-12-23T05:30:34.828Z,12.9
2022-12-23T05:31:34.744Z,11.9
2022-12-23T05:32:34.541Z,13.1
2022-12-23T05:33:34.698Z,13.6
2022-12-23T05:34:34.525Z,12.1
2022-12-23T05:35:34.245Z,12.3
2022-12-23T05:36:34.110Z,13.5
2022-12-23T05:37:34.353Z,13.3
2022-12-23T05:38:34.635Z,12.5
2022-12-23T05:39:34.373Z,11.9
2022-12-23T05:40:34.535Z,13.4
2022-12-23T05:41:34.435Z,11.8
2022-12-23T05:42:34.234Z,12.1
2022-12-23T05:43:34.075Z,11.9
2022-12-23T05:44:33.894Z,13.4
2022-12-23T05:45:34.917Z,12.7
2022-12-23T05:46:34.093Z,13.0
2022-12-23T05:47:35.120Z,12.9
2022-12-23T05:48:34.063Z,12.3
2022-12-23T05:49:33.902Z,11.2
2022-12-23T05:50:34.199Z,12.3
2022-12-23T05:51:34.395Z,11.7
2022-12-23T05:52:34.651Z,12.8
2022-12-23T05:53:34.565Z,11.9
2022-12-23T05:54:34.029Z,12.4
2022-12-23T05:55:34.847Z,12.2
2022-12-23T05:56:34.320Z,12.3
2022-12-23T05:57:34.143Z,12.4
2022-12-23T05:58:38.005Z,11.9
2022-12-23T05:59:34.744Z,12.8
2022-12-23T06:00:34.574Z,12.7
2022-12-23T06:01:34.926Z,12.1
2022-12-23T06:02:34.273Z,11.4
2022-12-23T06:03:34.328Z,11.6
2022-12-23T06:04:34.530Z,12.4
2022-12-23T06:05:33.919Z,13.4
2022-12-23T06:06:34.683Z,12.7
2022-12-23T06:07:34.588Z,13.3
2022-12-23T06:08:34.286Z,12.0
2022-12-23T06:09:34.295Z,12.7
2022-12-23T06:10:34.130Z,12.4
2022-12-23T06:11:34.697Z,12.9
2022-12-23T06:12:34.067Z,13.0
2022-12-23T06:13:34.255Z,11.8
2022-12-23T06:14:34.136Z,11.7
2022-12-23T06:15:34.362Z,12.4
2022-12-23T06:16:34.192Z,11.2
2022-12-23T06:17:33.972Z,12.4
2022-12-23T06:18:34.699Z,12.7
2022-12-23T06:19:34.591Z,11.3
2022-12-23T06:20:34.400Z,12.4
2022-12-23T06:21:34.197Z,12.4
2022-12-23T06:22:34.003Z,13.4
2022-12-23T06:23:34.748Z,12.7
2022-12-23T06:24:34.545Z,13.1
2022-12-23T06:25:34.363Z,11.5
2022-12-23T06:26:34.213Z,12.6
2022-12-23T06:27:33.855Z,11.7
2022-12-23T06:28:34.596Z,12.7
2022-12-23T06:29:34.632Z,11.8
2022-12-23T06:30:34.675Z,11.7
2022-12-23T06:31:34.574Z,12.1
2022-12-23T06:32:38.226Z,12.8
2022-12-23T06:33:34.795Z,11.5
2022-12-23T06:34:34.498Z,10.9
2022-12-23T06:35:34.228Z,12.9
2022-12-23T06:36:34.517Z,11.9
2022-12-23T06:37:34.753Z,12.8
2022-12-23T06:38:34.063Z,11.5
2022-12-23T06:39:34.341Z,12.4
2022-12-23T06:40:34.102Z,12.0
2022-12-23T06:41:34.390Z,12.2
2022-12-23T06:42:34.235Z,11.5
2022-12-23T06:43:34.117Z,12.2
2022-12-23T06:44:34.776Z,11.2
2022-12-23T06:45:34.087Z,12.7
2022-12-23T06:46:34.641Z,11.1
2022-12-23T06:47:34.669Z,12.4
2022-12-23T06:48:34.448Z,13.0
2022-12-23T06:49:34.293Z,11.4
2022-12-23T06:50:34.067Z,12.5
2022-12-23T06:51:33.916Z,11.9
2022-12-23T06:52:34.227Z,12.5
2022-12-23T06:53:34.025Z,11.2
2022-12-23T06:54:34.734Z,11.8
2022-12-23T06:55:34.694Z,12.5
2022-12-23T06:56:34.410Z,11.9
2022-12-23T06:57:34.739Z,11.5
2022-12-23T06:58:34.562Z,12.8
2022-12-23T06:59:34.411Z,11.8
2022-12-23T07:00:34.315Z,11.8
2022-12-23T07:01:34.154Z,12.2
2022-12-23T07:02:34.869Z,11.3
2022-12-23T07:03:34.677Z,12.0
2022-12-23T07:04:34.393Z,12.0
2022-12-23T07:05:37.261Z,11.1
2022-12-23T07:06:34.252Z,11.3
2022-12-23T07:07:34.256Z,11.1
2022-12-23T07:08:34.420Z,12.1
2022-12-23T07:09:34.299Z,11.1
2022-12-23T07:11:33.936Z,11.4
2022-12-23T07:12:34.649Z,12.1
2022-12-23T07:13:34.573Z,11.2
2022-12-23T07:14:34.740Z,12.7
2022-12-23T07:15:34.999Z,11.7
2022-12-23T07:16:33.938Z,11.8
2022-12-23T07:17:34.556Z,10.9
2022-12-23T07:18:34.639Z,12.0
2022-12-23T07:19:34.225Z,12.1
2022-12-23T07:20:34.049Z,12.0
2022-12-23T07:21:34.260Z,11.0
2022-12-23T07:22:34.090Z,10.5
2022-12-23T07:23:33.910Z,12.1
2022-12-23T07:24:34.935Z,10.0
2022-12-23T07:25:33.933Z,11.7
2022-12-23T07:26:34.249Z,10.0
2022-12-23T07:27:34.478Z,11.6
2022-12-23T07:28:34.358Z,12.5
2022-12-23T07:29:34.128Z,11.4
2022-12-23T07:30:34.742Z,12.1
2022-12-23T07:31:36.219Z,11.5
2022-12-23T07:32:34.043Z,11.6
2022-12-23T07:33:34.548Z,10.7
2022-12-23T07:34:34.484Z,11.1
2022-12-23T07:35:33.909Z,11.2
2022-12-23T07:36:34.562Z,11.4
2022-12-23T07:37:34.593Z,11.6
2022-12-23T07:38:34.648Z,10.7
2022-12-23T07:39:34.485Z,11.4
2022-12-23T07:40:34.358Z,11.1
2022-12-23T07:41:34.098Z,12.4
2022-12-23T07:42:45.121Z,10.4
2022-12-23T07:43:33.987Z,10.3
2022-12-23T07:44:34.475Z,12.2
2022-12-23T07:45:34.630Z,11.3
2022-12-23T07:46:34.131Z,10.3
2022-12-23T07:47:34.457Z,10.5
2022-12-23T07:48:34.531Z,10.4
2022-12-23T07:49:33.967Z,11.8
2022-12-23T07:50:34.398Z,11.2
2022-12-23T07:51:34.154Z,10.6
2022-12-23T07:52:34.019Z,11.2
2022-12-23T07:53:34.889Z,12.8
2022-12-23T07:54:34.015Z,18.5
2022-12-23T07:55:34.861Z,21.1
2022-12-23T07:56:34.609Z,19.4
2022-12-23T07:57:34.249Z,19.6
2022-12-23T07:58:34.503Z,18.1
2022-12-23T07:59:34.207Z,16.4
2022-12-23T08:00:34.279Z,17.1
2022-12-23T08:01:34.773Z,16.8
2022-12-23T08:02:35.014Z,16.1
2022-12-23T08:03:34.702Z,19.0
2022-12-23T08:04:34.007Z,20.0
2022-12-23T08:05:34.497Z,18.8
2022-12-23T08:06:34.778Z,19.6
2022-12-23T08:07:34.285Z,19.5
2022-12-23T08:08:34.692Z,18.5
2022-12-23T08:09:34.132Z,19.4
2022-12-23T08:10:34.422Z,17.7
2022-12-23T08:11:34.345Z,17.9
2022-12-23T08:12:35.048Z,19.5
2022-12-23T08:13:35.276Z,18.6
2022-12-23T08:14:34.008Z,18.0
2022-12-23T08:15:34.678Z,17.4
2022-12-23T08:16:41.268Z,17.3
2022-12-23T08:17:34.760Z,17.0
2022-12-23T08:18:35.872Z,17.0
2022-12-23T08:19:34.357Z,16.3
2022-12-23T08:20:34.572Z,16.2
2022-12-23T08:21:34.035Z,16.1
2022-12-23T08:22:33.951Z,16.6
2022-12-23T08:23:34.356Z,16.0
2022-12-23T08:24:34.472Z,15.9
2022-12-23T08:25:34.726Z,15.7
2022-12-23T08:26:34.735Z,15.4
2022-12-23T08:27:34.749Z,15.5
2022-12-23T08:28:34.546Z,16.1
2022-12-23T08:29:36.396Z,15.5
2022-12-23T08:30:34.627Z,14.5
2022-12-23T08:31:34.024Z,14.6
2022-12-23T08:32:34.479Z,15.4
2022-12-23T08:33:35.027Z,14.1
2022-12-23T08:34:34.553Z,15.5
2022-12-23T08:35:34.457Z,14.9
2022-12-23T08:36:34.656Z,14.4
2022-12-23T08:37:34.261Z,15.2
2022-12-23T08:38:34.525Z,13.8
2022-12-23T08:39:34.224Z,14.5
2022-12-23T08:40:34.467Z,14.1
2022-12-23T08:41:38.930Z,13.8
2022-12-23T08:42:34.577Z,14.2
2022-12-23T08:43:36.188Z,15.4
2022-12-23T08:44:34.539Z,14.3
2022-12-23T08:45:37.310Z,13.6
2022-12-23T08:46:34.552Z,13.4
2022-12-23T08:47:33.948Z,13.6
2022-12-23T08:48:35.075Z,14.2
2022-12-23T08:49:34.421Z,13.7
2022-12-23T08:50:37.791Z,13.6
2022-12-23T08:51:35.225Z,13.5
2022-12-23T08:52:33.946Z,14.0
2022-12-23T08:53:35.179Z,13.7
2022-12-23T08:54:34.379Z,14.0
2022-12-23T08:55:41.347Z,14.5
2022-12-23T08:56:35.441Z,14.9
2022-12-23T08:57:33.968Z,13.8
2022-12-23T08:58:37.997Z,13.8
2022-12-23T08:59:34.415Z,13.2
2022-12-23T09:00:34.585Z,13.7
2022-12-23T09:01:34.107Z,14.4
2022-12-23T09:02:34.506Z,14.4
2022-12-23T09:03:35.013Z,13.0
2022-12-23T09:04:35.214Z,13.8
2022-12-23T09:05:38.363Z,13.4
2022-12-23T09:06:35.229Z,13.8
2022-12-23T09:07:34.621Z,12.9
2022-12-23T09:08:34.092Z,13.0
2022-12-23T09:09:36.191Z,12.3
2022-12-23T09:10:39.371Z,11.9
2022-12-23T09:11:34.768Z,13.7
2022-12-23T09:12:34.056Z,13.2
2022-12-23T09:13:35.848Z,13.3
2022-12-23T09:14:34.610Z,13.0
2022-12-23T09:15:34.038Z,12.0
2022-12-23T09:16:34.378Z,12.5
2022-12-23T09:17:34.513Z,12.3
2022-12-23T09:18:34.773Z,13.8
2022-12-23T09:19:34.587Z,13.7
2022-12-23T09:20:33.988Z,12.7
2022-12-23T09:21:34.183Z,13.1
2022-12-23T09:22:34.368Z,13.1
2022-12-23T09:23:34.660Z,12.4
2022-12-23T09:24:34.589Z,14.2
2022-12-23T09:25:34.950Z,13.5
2022-12-23T09:26:34.164Z,12.0
2022-12-23T09:27:34.077Z,12.3
2022-12-23T09:28:34.722Z,12.6
2022-12-23T09:29:34.398Z,13.0
2022-12-23T09:30:34.309Z,12.8
2022-12-23T09:31:36.632Z,12.4
2022-12-23T09:32:34.298Z,11.8
2022-12-23T09:33:34.714Z,12.7
2022-12-23T09:34:34.353Z,12.4
2022-12-23T09:35:34.235Z,12.8
2022-12-23T09:36:34.124Z,12.6
2022-12-23T09:37:34.942Z,12.6
2022-12-23T09:38:34.978Z,12.9
2022-12-23T09:39:33.955Z,12.4
2022-12-23T09:40:35.867Z,12.1
2022-12-23T09:41:39.433Z,12.6
2022-12-23T09:42:38.831Z,12.9
2022-12-23T09:43:44.523Z,11.9
2022-12-23T09:44:37.714Z,12.1
2022-12-23T09:45:40.897Z,12.0
2022-12-23T09:46:37.448Z,11.7
2022-12-23T09:47:34.683Z,12.6
2022-12-23T09:48:38.098Z,12.4
2022-12-23T09:49:34.447Z,11.8
2022-12-23T09:50:34.747Z,12.1
2022-12-23T09:51:34.177Z,12.2
2022-12-23T09:52:42.586Z,12.2
2022-12-23T09:53:45.097Z,11.4
2022-12-23T09:54:43.448Z,11.8
2022-12-23T09:55:48.063Z,13.0
2022-12-23T09:56:38.777Z,12.6
2022-12-23T09:57:48.125Z,12.0
2022-12-23T09:58:44.550Z,12.7
2022-12-23T09:59:39.110Z,12.3
2022-12-23T10:00:38.187Z,12.4
2022-12-23T10:01:44.566Z,12.1
2022-12-23T10:02:44.810Z,11.4
2022-12-23T10:03:42.326Z,11.6
2022-12-23T10:04:39.522Z,11.5
2022-12-23T10:05:39.207Z,11.7
2022-12-23T10:06:35.317Z,11.9
2022-12-23T10:07:39.295Z,11.6
2022-12-23T10:08:40.061Z,10.8
2022-12-23T10:09:38.688Z,12.4
2022-12-23T10:10:39.680Z,11.4
2022-12-23T10:11:40.381Z,12.1
2022-12-23T10:12:40.082Z,11.9
2022-12-23T10:13:37.243Z,12.3
2022-12-23T10:14:35.307Z,11.5
2022-12-23T10:15:41.150Z,11.8
2022-12-23T10:16:44.705Z,11.0
2022-12-23T10:17:38.157Z,11.2
2022-12-23T10:18:39.077Z,11.0
2022-12-23T10:19:38.445Z,11.4
2022-12-23T10:20:39.635Z,11.1
2022-12-23T10:21:43.711Z,11.5
2022-12-23T10:22:37.648Z,11.5
2022-12-23T10:23:36.700Z,11.3
2022-12-23T10:24:39.441Z,11.2
2022-12-23T10:25:37.403Z,11.1
2022-12-23T10:26:39.402Z,11.1
2022-12-23T10:27:37.247Z,10.8
2022-12-23T10:28:34.542Z,11.5
2022-12-23T10:29:33.880Z,11.9
2022-12-23T10:30:57.252Z,11.6
2022-12-23T10:31:48.184Z,11.9
2022-12-23T10:32:45.670Z,11.7
2022-12-23T10:33:39.388Z,11.7
2022-12-23T10:34:42.086Z,11.8
2022-12-23T10:35:50.608Z,10.9
2022-12-23T10:36:52.585Z,11.2
2022-12-23T10:37:39.152Z,11.4
2022-12-23T10:38:41.571Z,10.0
2022-12-23T10:39:42.605Z,11.0
2022-12-23T10:40:39.407Z,11.2
2022-12-23T10:41:39.716Z,11.9
2022-12-23T10:42:38.980Z,11.4
2022-12-23T10:43:39.211Z,12.7
2022-12-23T10:44:39.025Z,11.4
2022-12-23T10:45:44.615Z,10.6
2022-12-23T10:46:42.648Z,10.7
2022-12-23T10:47:52.519Z,11.2
2022-12-23T10:48:57.082Z,11.9
2022-12-23T10:49:42.174Z,11.6
2022-12-23T10:50:39.401Z,10.4
2022-12-23T10:51:39.590Z,10.1
2022-12-23T10:52:36.522Z,11.6
2022-12-23T10:53:41.056Z,10.6
2022-12-23T10:54:35.214Z,10.3
2022-12-23T10:55:35.183Z,10.4
2022-12-23T10:56:34.690Z,12.0
2022-12-23T10:57:34.489Z,10.8
2022-12-23T10:58:36.280Z,11.0
2022-12-23T10:59:35.342Z,11.1
2022-12-23T11:00:36.538Z,11.4
2022-12-23T11:01:34.413Z,11.5
2022-12-23T11:02:46.461Z,11.2
2022-12-23T11:03:52.106Z,11.1
2022-12-23T11:04:35.462Z,10.9
2022-12-23T11:05:35.159Z,10.7
2022-12-23T11:06:38.019Z,11.4
2022-12-23T11:07:44.590Z,11.2
2022-12-23T11:08:35.257Z,10.2
2022-12-23T11:09:37.917Z,11.6
2022-12-23T11:10:34.737Z,10.3
2022-12-23T11:11:52.561Z,10.9
2022-12-23T11:12:42.684Z,11.0
2022-12-23T11:13:36.280Z,10.7
2022-12-23T11:14:36.036Z,11.5
2022-12-23T11:15:35.726Z,10.0
2022-12-23T11:16:34.528Z,11.0
2022-12-23T11:17:34.129Z,10.9
2022-12-23T11:18:38.804Z,9.9
2022-12-23T11:19:34.720Z,9.0
2022-12-23T11:20:35.474Z,11.3
2022-12-23T11:21:34.347Z,10.5
2022-12-23T11:22:33.908Z,10.1
2022-12-23T11:23:34.963Z,10.6
2022-12-23T11:24:39.658Z,9.5
2022-12-23T11:25:40.687Z,10.6
2022-12-23T11:26:34.546Z,10.3
2022-12-23T11:27:34.496Z,10.5
2022-12-23T11:28:36.169Z,10.3
2022-12-23T11:29:35.874Z,10.9
2022-12-23T11:30:41.603Z,10.5
2022-12-23T11:31:34.979Z,10.4
2022-12-23T11:32:34.508Z,10.4
2022-12-23T11:33:36.790Z,10.4
2022-12-23T11:34:36.398Z,10.8
2022-12-23T11:35:35.323Z,9.9
2022-12-23T11:36:34.218Z,10.8
2022-12-23T11:37:36.130Z,10.1
2022-12-23T11:38:36.540Z,10.0
2022-12-23T11:39:35.625Z,10.0
2022-12-23T11:40:36.157Z,10.7
2022-12-23T11:41:39.235Z,10.8
2022-12-23T11:42:34.444Z,10.9
2022-12-23T11:43:34.157Z,10.7
2022-12-23T11:44:41.500Z,10.4
2022-12-23T11:45:36.475Z,11.0
2022-12-23T11:46:34.513Z,11.1
2022-12-23T11:47:39.283Z,9.6
2022-12-23T11:48:34.576Z,10.4
2022-12-23T11:49:35.911Z,9.7
2022-12-23T11:50:36.480Z,10.3
2022-12-23T11:51:34.433Z,10.4
2022-12-23T11:52:34.190Z,10.5
2022-12-23T11:53:34.413Z,10.9
2022-12-23T11:54:34.385Z,10.1
2022-12-23T11:55:34.110Z,10.2
2022-12-23T11:56:35.850Z,10.0
2022-12-23T11:57:38.642Z,9.7
2022-12-23T11:58:48.263Z,10.5
2022-12-23T11:59:38.971Z,10.8
2022-12-23T12:00:40.968Z,9.4
2022-12-23T12:01:35.368Z,10.5
2022-12-23T12:02:39.804Z,10.5
2022-12-23T12:03:39.821Z,9.5
2022-12-23T12:04:34.874Z,10.9
2022-12-23T12:05:35.896Z,10.1
2022-12-23T12:06:39.567Z,9.8
2022-12-23T12:07:34.730Z,10.5
2022-12-23T12:08:36.609Z,10.6
2022-12-23T12:09:38.365Z,9.5
2022-12-23T12:10:35.894Z,10.2
2022-12-23T12:11:38.428Z,9.9
2022-12-23T12:12:34.406Z,9.9
2022-12-23T12:13:41.098Z,10.7
2022-12-23T12:14:38.909Z,9.2
2022-12-23T12:15:42.572Z,9.3
2022-12-23T12:16:42.118Z,11.0
2022-12-23T12:17:43.648Z,10.0
2022-12-23T12:18:34.982Z,10.6
2022-12-23T12:19:37.942Z,10.4
2022-12-23T12:20:39.641Z,10.7
2022-12-23T12:21:36.642Z,10.3
2022-12-23T12:22:42.067Z,10.2
2022-12-23T12:23:39.545Z,9.3
2022-12-23T12:24:40.586Z,9.0
2022-12-23T12:25:39.923Z,9.8
2022-12-23T12:26:36.268Z,11.0
2022-12-23T12:27:36.948Z,10.1
2022-12-23T12:28:37.401Z,9.3
2022-12-23T12:29:39.732Z,9.1
2022-12-23T12:30:38.854Z,9.6
2022-12-23T12:31:45.855Z,9.6
2022-12-23T12:32:52.886Z,10.5
2022-12-23T12:33:46.754Z,9.5
2022-12-23T12:34:48.054Z,10.0
2022-12-23T12:35:40.783Z,10.4
2022-12-23T12:36:42.211Z,10.0
2022-12-23T12:37:44.076Z,11.1
2022-12-23T12:38:37.031Z,10.0
2022-12-23T12:39:41.921Z,8.6
2022-12-23T12:40:39.024Z,8.8
2022-12-23T12:41:37.138Z,9.7
2022-12-23T12:42:40.038Z,10.7
2022-12-23T12:43:37.029Z,10.2
2022-12-23T12:44:39.590Z,9.8
2022-12-23T12:45:39.073Z,9.6
2022-12-23T12:46:48.900Z,9.6
2022-12-23T12:47:54.120Z,10.0
2022-12-23T12:48:42.450Z,10.3
2022-12-23T12:49:40.415Z,9.3
2022-12-23T12:50:38.189Z,9.6
2022-12-23T12:51:41.585Z,10.5
2022-12-23T12:52:38.176Z,10.8
2022-12-23T12:53:36.123Z,10.9
2022-12-23T12:54:38.876Z,10.1
2022-12-23T12:55:36.501Z,9.8
2022-12-23T12:56:39.201Z,9.3
2022-12-23T12:57:35.273Z,9.8
2022-12-23T12:58:33.965Z,10.5
2022-12-23T12:59:35.964Z,10.6
2022-12-23T13:00:38.914Z,10.8
2022-12-23T13:01:51.086Z,11.5
2022-12-23T13:02:52.289Z,10.3
2022-12-23T13:03:52.062Z,10.4
2022-12-23T13:04:41.553Z,11.0
2022-12-23T13:05:56.275Z,12.1
2022-12-23T13:06:39.214Z,10.5
2022-12-23T13:07:48.098Z,11.6
2022-12-23T13:08:42.097Z,10.5
2022-12-23T13:09:48.120Z,10.8
2022-12-23T13:10:51.105Z,11.2
2022-12-23T13:11:41.302Z,10.8
2022-12-23T13:12:39.024Z,10.4
2022-12-23T13:13:39.707Z,11.1
2022-12-23T13:14:50.639Z,10.6
2022-12-23T13:15:45.057Z,10.9
2022-12-23T13:16:39.642Z,11.4
2022-12-23T13:17:39.294Z,10.1
2022-12-23T13:18:48.245Z,10.2
2022-12-23T13:19:52.044Z,10.4
2022-12-23T13:20:52.488Z,10.5
2022-12-23T13:21:39.476Z,10.3